Time;durP1;ratioP1;P1;durP2;ratioP2;P2;SDS_P1;SDS_P2;PMS_P1;PMS_P2;Temp;Humidity;BMP_temperature;BMP_pressure;BME280_temperature;BME280_humidity;BME280_pressure;Samples;Min_cycle;Max_cycle;Signal;HPM_P1;HPM_P2
2022/11/20 00:01:28;;;;;;;32.10;18.90;;;;;;;-5.32;93.58;96279.53;105162;1306;23775;-76
2022/11/20 00:04:01;;;;;;;28.70;17.70;;;;;;;-5.33;93.75;96278.57;105139;1281;25387;-75
2022/11/20 00:06:32;;;;;;;27.80;17.50;;;;;;;-5.30;94.04;96279.73;105178;1297;23215;-76
2022/11/20 00:09:05;;;;;;;26.90;15.20;;;;;;;-5.21;94.41;96278.02;104439;1303;23825;-76
2022/11/20 00:11:36;;;;;;;28.20;17.70;;;;;;;-5.15;94.50;96274.16;105223;1303;22637;-76
2022/11/20 00:14:07;;;;;;;28.90;17.60;;;;;;;-5.09;94.68;96279.09;105195;1285;24194;-76
2022/11/20 00:16:39;;;;;;;27.30;16.40;;;;;;;-5.03;94.60;96284.39;105172;1301;22461;-76
2022/11/20 00:19:10;;;;;;;27.30;15.40;;;;;;;-4.97;94.81;96287.05;105211;1279;24912;-76
2022/11/20 00:21:42;;;;;;;26.60;17.50;;;;;;;-4.92;94.76;96289.60;105181;1279;24285;-76
2022/11/20 00:24:13;;;;;;;27.00;17.60;;;;;;;-4.88;94.71;96284.58;105202;1281;22480;-76
2022/11/20 00:26:47;;;;;;;25.30;15.50;;;;;;;-4.85;94.80;96278.50;105161;1303;22472;-76
2022/11/20 00:29:18;;;;;;;24.20;15.00;;;;;;;-4.83;94.68;96270.64;105210;1298;25248;-76
2022/11/20 00:31:52;;;;;;;23.80;15.40;;;;;;;-4.80;94.52;96270.88;105240;1304;22507;-76
2022/11/20 00:34:23;;;;;;;27.80;17.90;;;;;;;-4.82;94.38;96271.32;105200;1291;22473;-76
2022/11/20 00:36:57;;;;;;;28.10;17.50;;;;;;;-4.84;94.50;96276.31;105216;1288;22487;-76
2022/11/20 00:39:29;;;;;;;29.20;17.30;;;;;;;-4.80;94.56;96274.27;105263;1302;22471;-76
2022/11/20 00:42:02;;;;;;;29.20;16.90;;;;;;;-4.74;94.81;96273.88;105307;1303;22939;-76
2022/11/20 00:44:34;;;;;;;31.20;19.50;;;;;;;-4.74;94.74;96270.27;105233;1303;22470;-76
2022/11/20 00:47:05;;;;;;;33.40;20.60;;;;;;;-4.74;94.62;96269.54;105174;1303;22493;-76
2022/11/20 00:49:36;;;;;;;36.30;21.00;;;;;;;-4.72;94.71;96260.72;105212;1303;22673;-76
2022/11/20 00:52:10;;;;;;;31.30;20.40;;;;;;;-4.68;94.56;96267.34;105221;1303;22615;-76
2022/11/20 00:54:41;;;;;;;32.70;19.30;;;;;;;-4.71;94.44;96281.33;105176;1278;22494;-76
2022/11/20 00:57:15;;;;;;;34.40;20.50;;;;;;;-4.74;94.44;96279.45;105166;1282;22468;-76
2022/11/20 00:59:46;;;;;;;36.50;20.80;;;;;;;-4.78;94.33;96277.30;105236;1303;22486;-76
2022/11/20 01:02:18;;;;;;;34.60;22.40;;;;;;;-4.77;94.40;96269.92;105204;1281;22462;-76
2022/11/20 01:04:49;;;;;;;36.40;21.30;;;;;;;-4.73;94.45;96262.75;105190;1288;22462;-76
2022/11/20 01:07:22;;;;;;;36.50;22.50;;;;;;;-4.72;94.54;96264.54;105179;1294;22486;-76
2022/11/20 01:09:54;;;;;;;35.80;22.60;;;;;;;-4.71;94.34;96271.06;105217;1303;23035;-76
2022/11/20 01:12:25;;;;;;;38.90;24.30;;;;;;;-4.68;94.40;96277.16;105219;1285;22466;-76
2022/11/20 01:14:56;;;;;;;30.10;19.50;;;;;;;-4.66;94.47;96274.27;105208;1303;22917;-76
2022/11/20 01:17:27;;;;;;;34.60;20.90;;;;;;;-4.64;94.50;96270.55;105182;1303;22561;-76
2022/11/20 01:19:59;;;;;;;37.20;21.90;;;;;;;-4.63;94.42;96272.06;105186;1301;26197;-76
2022/11/20 01:22:30;;;;;;;35.30;22.60;;;;;;;-4.61;94.64;96270.17;105231;1279;24248;-76
2022/11/20 01:25:01;;;;;;;35.30;21.90;;;;;;;-4.55;94.78;96269.23;105223;1303;22457;-76
2022/11/20 01:27:35;;;;;;;33.70;21.10;;;;;;;-4.49;94.84;96262.59;105129;1304;22559;-76
2022/11/20 01:30:08;;;;;;;37.40;22.70;;;;;;;-4.45;94.84;96262.32;105233;1303;22460;-76
2022/11/20 01:32:39;;;;;;;37.60;22.30;;;;;;;-4.39;94.84;96256.73;105262;1303;22948;-76
2022/11/20 01:35:11;;;;;;;34.80;21.10;;;;;;;-4.35;94.91;96252.77;105223;1281;22495;-76
2022/11/20 01:37:42;;;;;;;36.90;21.70;;;;;;;-4.35;94.80;96252.10;105160;1303;22474;-76
2022/11/20 01:40:14;;;;;;;38.60;23.40;;;;;;;-4.38;94.63;96254.46;105206;1303;24320;-76
2022/11/20 01:46:03;;;;;;;53.80;29.00;;;;;;;-4.37;94.83;96252.09;105212;1303;22468;-76
2022/11/20 01:48:39;;;;;;;40.90;24.20;;;;;;;-4.42;94.66;96252.14;105189;1303;23049;-76
2022/11/20 01:51:20;;;;;;;44.60;24.70;;;;;;;-4.43;94.72;96256.80;105220;1298;22479;-76
2022/11/20 01:53:58;;;;;;;38.90;22.70;;;;;;;-4.44;94.70;96253.96;105232;1297;23838;-76
2022/11/20 01:56:31;;;;;;;36.50;22.40;;;;;;;-4.43;94.65;96253.50;105152;1297;22449;-76
2022/11/20 01:59:05;;;;;;;34.90;21.70;;;;;;;-4.43;94.70;96252.62;105234;1287;25143;-76
2022/11/20 02:01:36;;;;;;;34.90;21.30;;;;;;;-4.44;94.61;96247.16;105226;1278;24827;-76
2022/11/20 02:04:12;;;;;;;33.30;20.90;;;;;;;-4.45;94.58;96243.02;105219;1303;22466;-76
2022/11/20 02:06:47;;;;;;;31.90;21.10;;;;;;;-4.46;94.55;96249.90;105143;1303;24250;-76
2022/11/20 02:09:18;;;;;;;36.30;23.10;;;;;;;-4.49;94.48;96246.92;105228;1275;25375;-76
2022/11/20 02:11:50;;;;;;;28.50;18.50;;;;;;;-4.48;94.60;96249.63;105240;1288;25411;-76
2022/11/20 02:14:26;;;;;;;32.60;20.90;;;;;;;-4.52;94.41;96248.84;105244;1303;22902;-76
2022/11/20 02:16:58;;;;;;;32.80;20.50;;;;;;;-4.62;94.21;96245.70;105155;1303;23683;-76
2022/11/20 02:19:32;;;;;;;32.40;19.50;;;;;;;-4.64;94.37;96250.81;105241;1295;23795;-76
2022/11/20 02:22:12;;;;;;;31.20;20.70;;;;;;;-4.61;94.50;96251.20;105135;1295;22461;-76
2022/11/20 02:24:44;;;;;;;34.40;20.10;;;;;;;-4.53;94.75;96249.86;105199;1299;22461;-76
2022/11/20 02:27:17;;;;;;;32.70;19.60;;;;;;;-4.48;94.83;96249.41;105113;1298;27348;-76
2022/11/20 02:29:53;;;;;;;31.60;19.40;;;;;;;-4.43;94.74;96249.76;105186;1287;25303;-76
2022/11/20 02:32:27;;;;;;;30.00;19.30;;;;;;;-4.39;94.71;96245.10;105187;1306;22896;-76
2022/11/20 02:34:58;;;;;;;34.10;20.70;;;;;;;-4.37;94.56;96241.58;105171;1294;22588;-76
2022/11/20 02:37:35;;;;;;;36.20;21.70;;;;;;;-4.35;94.53;96239.33;105082;1291;28506;-76
2022/11/20 02:40:08;;;;;;;34.90;21.90;;;;;;;-4.33;94.46;96242.33;105232;1290;22525;-76
2022/11/20 02:42:40;;;;;;;34.60;21.50;;;;;;;-4.35;94.30;96240.91;105240;1297;22480;-76
2022/11/20 02:45:12;;;;;;;37.80;22.40;;;;;;;-4.37;94.13;96243.76;105130;1300;22456;-76
2022/11/20 02:47:45;;;;;;;29.90;19.30;;;;;;;-4.39;94.22;96245.50;105177;1288;25820;-76
2022/11/20 02:50:17;;;;;;;34.80;22.70;;;;;;;-4.41;94.11;96243.03;105104;1280;25366;-76
2022/11/20 02:52:48;;;;;;;39.20;23.20;;;;;;;-4.44;94.10;96241.59;105167;1281;22486;-76
2022/11/20 02:55:19;;;;;;;29.10;18.50;;;;;;;-4.45;94.15;96231.13;105202;1304;22478;-76
2022/11/20 02:57:50;;;;;;;31.70;19.90;;;;;;;-4.51;93.90;96231.89;105131;1304;22561;-76
2022/11/20 03:00:22;;;;;;;32.90;19.80;;;;;;;-4.67;93.91;96228.36;105209;1289;22464;-76
2022/11/20 03:02:53;;;;;;;34.20;21.20;;;;;;;-4.76;93.89;96228.84;105236;1304;22474;-76
2022/11/20 03:05:24;;;;;;;30.60;19.30;;;;;;;-4.79;94.11;96225.89;105196;1304;22493;-76
2022/11/20 03:07:55;;;;;;;34.00;20.00;;;;;;;-4.80;94.12;96223.67;105160;1302;22658;-76
2022/11/20 03:10:27;;;;;;;28.10;18.50;;;;;;;-4.79;94.13;96229.68;105193;1291;25268;-76
2022/11/20 03:12:58;;;;;;;29.70;18.50;;;;;;;-4.82;93.99;96228.48;105137;1281;24260;-76
2022/11/20 03:15:32;;;;;;;29.40;19.30;;;;;;;-4.84;93.79;96232.01;105205;1294;22552;-76
2022/11/20 03:18:03;;;;;;;29.20;18.70;;;;;;;-4.91;93.59;96228.11;105139;1304;22469;-76
2022/11/20 03:20:35;;;;;;;28.70;18.80;;;;;;;-4.95;93.70;96227.91;105198;1304;23834;-76
2022/11/20 03:23:06;;;;;;;28.70;17.50;;;;;;;-4.96;93.86;96230.91;105206;1281;23781;-76
2022/11/20 03:25:38;;;;;;;27.60;17.20;;;;;;;-4.98;93.95;96234.44;105208;1288;22471;-76
2022/11/20 03:28:09;;;;;;;29.50;18.60;;;;;;;-4.98;94.02;96232.60;105068;1304;22595;-76
2022/11/20 03:30:40;;;;;;;29.90;16.70;;;;;;;-5.00;94.02;96228.38;105220;1304;22512;-76
2022/11/20 03:33:11;;;;;;;27.30;16.40;;;;;;;-5.01;94.06;96227.55;105242;1295;22462;-76
2022/11/20 03:35:42;;;;;;;25.60;15.50;;;;;;;-5.00;94.15;96227.16;105154;1282;22527;-76
2022/11/20 03:38:13;;;;;;;25.40;16.10;;;;;;;-5.00;94.26;96222.61;105260;1296;22477;-76
2022/11/20 03:40:44;;;;;;;27.00;17.60;;;;;;;-5.01;94.31;96214.46;105316;1303;22474;-76
2022/11/20 03:43:16;;;;;;;26.80;16.60;;;;;;;-4.99;94.52;96212.23;105311;1285;22493;-76
2022/11/20 03:45:47;;;;;;;25.30;16.00;;;;;;;-4.98;94.54;96214.35;105224;1294;25362;-76
2022/11/20 03:48:18;;;;;;;25.30;15.80;;;;;;;-4.95;94.83;96216.19;105295;1302;22497;-76
2022/11/20 03:50:49;;;;;;;24.90;16.00;;;;;;;-4.93;94.96;96216.06;105289;1295;22470;-76
2022/11/20 03:53:21;;;;;;;24.70;16.40;;;;;;;-4.90;95.27;96215.16;105231;1297;26518;-76
2022/11/20 03:55:54;;;;;;;26.90;16.20;;;;;;;-4.93;95.03;96212.23;105290;1303;22473;-76
2022/11/20 03:58:26;;;;;;;28.00;17.60;;;;;;;-4.98;94.87;96214.23;105191;1302;22498;-76
2022/11/20 04:00:59;;;;;;;23.90;15.30;;;;;;;-4.99;94.89;96211.52;105245;1303;22671;-76
2022/11/20 04:03:30;;;;;;;24.60;15.70;;;;;;;-5.02;94.96;96218.20;105211;1278;25363;-76
2022/11/20 04:06:06;;;;;;;27.40;15.90;;;;;;;-5.01;95.09;96213.63;105246;1296;22513;-76
2022/11/20 04:08:40;;;;;;;24.40;14.10;;;;;;;-5.01;95.19;96212.52;105172;1304;31143;-76
2022/11/20 04:11:16;;;;;;;23.40;15.30;;;;;;;-5.03;95.15;96209.56;105190;1281;22829;-76
2022/11/20 04:13:50;;;;;;;24.60;14.60;;;;;;;-5.02;95.23;96210.13;105216;1298;22473;-76
2022/11/20 04:16:22;;;;;;;21.30;12.80;;;;;;;-4.99;95.19;96207.59;105159;1304;23744;-76
2022/11/20 04:18:56;;;;;;;25.20;14.80;;;;;;;-5.04;95.07;96204.55;105206;1304;22796;-76
2022/11/20 04:21:29;;;;;;;27.20;16.40;;;;;;;-5.11;95.07;96200.00;105187;1306;22486;-76
2022/11/20 04:24:00;;;;;;;25.60;15.90;;;;;;;-5.15;94.95;96199.91;105163;1304;25206;-76
2022/11/20 04:26:34;;;;;;;25.40;15.40;;;;;;;-5.17;95.07;96200.17;105160;1281;22458;-76
2022/11/20 04:29:05;;;;;;;27.30;16.80;;;;;;;-5.16;95.26;96201.93;105188;1298;22478;-76
2022/11/20 04:31:37;;;;;;;27.70;16.00;;;;;;;-5.13;95.52;96205.00;105220;1303;22483;-76
2022/11/20 04:34:12;;;;;;;29.70;17.20;;;;;;;-5.08;95.75;96209.71;105181;1306;24273;-76
2022/11/20 04:36:43;;;;;;;25.10;15.50;;;;;;;-4.99;96.16;96204.96;105276;1298;22583;-76
2022/11/20 04:39:20;;;;;;;24.20;15.00;;;;;;;-4.93;96.36;96206.04;105191;1304;25638;-76
2022/11/20 04:42:28;;;;;;;25.60;15.50;;;;;;;-4.84;96.67;96205.13;105197;1285;23744;-76
2022/11/20 04:44:43;;;;;;;23.40;14.40;;;;;;;-4.75;96.84;96200.95;105170;1295;24324;-76
2022/11/20 04:47:14;;;;;;;22.90;12.70;;;;;;;-4.72;96.88;96197.58;105241;1298;25263;-76
2022/11/20 04:49:45;;;;;;;21.00;12.70;;;;;;;-4.71;96.82;96200.21;105338;1303;24262;-76
2022/11/20 04:52:17;;;;;;;20.70;12.80;;;;;;;-4.71;96.85;96197.19;105269;1303;22588;-76
2022/11/20 04:54:52;;;;;;;23.00;13.80;;;;;;;-4.66;97.15;96200.44;105184;1303;23925;-76
2022/11/20 04:57:23;;;;;;;23.40;14.90;;;;;;;-4.61;97.16;96198.60;105168;1303;22473;-76
2022/11/20 04:59:54;;;;;;;24.50;14.80;;;;;;;-4.58;97.03;96198.60;105251;1288;25216;-76
2022/11/20 05:02:26;;;;;;;28.30;15.50;;;;;;;-4.59;96.86;96201.30;105222;1295;22531;-76
2022/11/20 05:04:59;;;;;;;27.30;17.00;;;;;;;-4.58;97.01;96199.91;105228;1298;22481;-76
2022/11/20 05:07:30;;;;;;;26.70;16.00;;;;;;;-4.53;97.14;96201.15;105171;1288;23931;-76
2022/11/20 05:10:02;;;;;;;28.30;17.00;;;;;;;-4.48;97.21;96200.71;105221;1303;22511;-76
2022/11/20 05:12:34;;;;;;;26.80;18.10;;;;;;;-4.41;97.43;96197.86;105221;1284;23847;-76
2022/11/20 05:15:06;;;;;;;28.40;19.00;;;;;;;-4.34;97.62;96198.33;105228;1278;24469;-76
2022/11/20 05:17:37;;;;;;;28.30;17.80;;;;;;;-4.26;97.66;96194.32;105175;1303;24264;-76
2022/11/20 05:20:11;;;;;;;30.20;17.50;;;;;;;-4.19;97.79;96195.19;105187;1285;22481;-76
2022/11/20 05:22:42;;;;;;;25.20;16.90;;;;;;;-4.14;97.73;96189.38;105465;1282;23893;-76
2022/11/20 05:25:14;;;;;;;26.10;15.30;;;;;;;-4.10;97.74;96175.75;105249;1305;22469;-76
2022/11/20 05:27:45;;;;;;;26.00;15.20;;;;;;;-4.08;97.53;96172.22;105137;1306;22497;-77
2022/11/20 05:30:17;;;;;;;22.90;14.00;;;;;;;-4.07;97.65;96171.04;105209;1297;22497;-76
2022/11/20 05:32:48;;;;;;;22.90;14.20;;;;;;;-4.05;97.57;96171.36;105322;1305;24450;-76
2022/11/20 05:35:20;;;;;;;22.70;14.80;;;;;;;-4.06;97.44;96170.88;105167;1288;25397;-76
2022/11/20 05:37:51;;;;;;;25.80;15.90;;;;;;;-4.07;97.23;96168.41;105098;1298;22469;-76
2022/11/20 05:40:23;;;;;;;27.10;16.50;;;;;;;-4.11;97.14;96171.92;105200;1291;22658;-76
2022/11/20 05:42:54;;;;;;;29.20;17.40;;;;;;;-4.16;97.05;96171.33;105229;1304;26555;-76
2022/11/20 05:45:25;;;;;;;22.10;15.70;;;;;;;-4.16;97.15;96168.63;105198;1298;22477;-76
2022/11/20 05:47:58;;;;;;;22.50;15.20;;;;;;;-4.15;97.21;96170.77;105152;1294;28111;-76
2022/11/20 05:50:30;;;;;;;21.90;13.70;;;;;;;-4.16;97.10;96176.35;105215;1288;22534;-76
2022/11/20 05:53:02;;;;;;;20.20;12.40;;;;;;;-4.20;97.01;96178.86;105204;1304;22582;-76
2022/11/20 05:55:33;;;;;;;19.60;12.10;;;;;;;-4.21;97.08;96180.25;105232;1298;22461;-76
2022/11/20 05:58:05;;;;;;;20.40;12.30;;;;;;;-4.23;96.95;96180.27;105157;1297;22912;-76
2022/11/20 06:00:37;;;;;;;26.80;15.70;;;;;;;-4.23;96.92;96178.59;105192;1297;22486;-76
2022/11/20 06:03:09;;;;;;;27.50;16.80;;;;;;;-4.22;96.91;96178.68;105183;1304;22993;-76
2022/11/20 06:05:40;;;;;;;27.50;14.90;;;;;;;-4.22;96.86;96170.89;105200;1304;22502;-76
2022/11/20 06:08:11;;;;;;;29.30;16.50;;;;;;;-4.23;96.89;96169.41;105137;1298;22521;-76
2022/11/20 06:10:42;;;;;;;27.10;15.30;;;;;;;-4.24;96.87;96170.55;105246;1304;22457;-76
2022/11/20 06:13:16;;;;;;;21.50;13.10;;;;;;;-4.25;96.84;96163.94;105152;1286;25314;-76
2022/11/20 06:15:55;;;;;;;24.40;13.60;;;;;;;-4.26;96.77;96157.53;105205;1297;22520;-76
2022/11/20 06:18:27;;;;;;;23.90;14.50;;;;;;;-4.25;96.81;96155.93;105168;1303;22924;-76
2022/11/20 06:21:05;;;;;;;23.80;13.80;;;;;;;-4.21;96.98;96152.34;105151;1304;22991;-76
2022/11/20 06:23:37;;;;;;;23.20;13.60;;;;;;;-4.16;97.02;96151.02;105172;1306;22456;-76
2022/11/20 06:26:11;;;;;;;29.60;17.90;;;;;;;-4.17;96.81;96154.26;105193;1281;26541;-76
2022/11/20 06:28:42;;;;;;;33.10;18.70;;;;;;;-4.24;96.58;96158.52;105150;1295;35975;-76
2022/11/20 06:31:15;;;;;;;33.00;19.70;;;;;;;-4.24;96.53;96166.29;105319;1282;25919;-76
2022/11/20 06:33:47;;;;;;;29.50;17.30;;;;;;;-4.22;96.62;96162.92;105211;1303;24426;-76
2022/11/20 06:36:21;;;;;;;27.80;17.40;;;;;;;-4.24;96.47;96157.80;105161;1295;22632;-76
2022/11/20 06:38:52;;;;;;;29.50;18.70;;;;;;;-4.24;96.46;96160.35;105212;1304;22584;-76
2022/11/20 06:41:25;;;;;;;26.20;15.90;;;;;;;-4.28;96.27;96156.73;105178;1298;22507;-76
2022/11/20 06:43:56;;;;;;;26.10;16.50;;;;;;;-4.32;96.10;96150.08;105194;1297;22478;-76
2022/11/20 06:46:28;;;;;;;26.80;17.30;;;;;;;-4.32;96.23;96153.55;105196;1293;24317;-76
2022/11/20 06:48:59;;;;;;;28.20;17.60;;;;;;;-4.24;96.27;96152.88;105323;1288;26627;-76
2022/11/20 06:51:31;;;;;;;25.80;16.20;;;;;;;-4.16;96.48;96147.52;105223;1292;22464;-76
2022/11/20 06:54:02;;;;;;;31.30;22.30;;;;;;;-4.11;96.35;96143.61;105255;1303;22476;-76
2022/11/20 06:56:34;;;;;;;31.40;21.00;;;;;;;-4.09;96.34;96145.45;105226;1303;25026;-76
2022/11/20 06:59:08;;;;;;;30.70;17.90;;;;;;;-4.01;96.33;96147.18;105193;1305;22474;-76
2022/11/20 07:01:39;;;;;;;37.10;21.50;;;;;;;-4.05;95.89;96144.39;105227;1304;22578;-76
2022/11/20 07:04:11;;;;;;;52.50;28.90;;;;;;;-4.14;95.61;96141.42;105219;1305;23189;-76
2022/11/20 07:06:43;;;;;;;50.20;28.70;;;;;;;-4.17;95.58;96137.96;105156;1305;23040;-76
2022/11/20 07:09:14;;;;;;;44.90;28.20;;;;;;;-4.16;95.78;96138.24;105204;1291;22647;-76
2022/11/20 07:11:46;;;;;;;46.70;27.60;;;;;;;-4.11;96.10;96146.77;105237;1306;23819;-76
2022/11/20 07:14:17;;;;;;;53.30;32.20;;;;;;;-3.98;96.37;96153.20;105217;1298;22481;-76
2022/11/20 07:16:49;;;;;;;42.80;26.80;;;;;;;-3.88;96.45;96154.40;105154;1285;22449;-76
2022/11/20 07:19:21;;;;;;;42.40;27.00;;;;;;;-3.84;96.44;96157.02;105245;1291;26366;-76
2022/11/20 07:21:53;;;;;;;48.50;31.30;;;;;;;-3.78;96.47;96156.77;105239;1303;22477;-76
2022/11/20 07:24:25;;;;;;;47.80;30.00;;;;;;;-3.73;96.65;96160.89;105217;1291;23943;-76
2022/11/20 07:26:58;;;;;;;50.00;31.10;;;;;;;-3.67;96.78;96166.64;105117;1303;22461;-76
2022/11/20 07:29:29;;;;;;;47.90;31.00;;;;;;;-3.62;96.72;96172.70;105176;1298;23853;-76
2022/11/20 07:32:03;;;;;;;44.70;29.50;;;;;;;-3.54;96.92;96174.04;105132;1294;22950;-76
2022/11/20 07:34:35;;;;;;;43.20;26.70;;;;;;;-3.48;97.10;96173.33;105179;1282;22480;-76
2022/11/20 07:37:09;;;;;;;37.80;24.00;;;;;;;-3.41;97.29;96173.06;105154;1298;22555;-76
2022/11/20 07:39:41;;;;;;;34.20;22.40;;;;;;;-3.34;97.29;96174.08;105186;1304;22499;-76
2022/11/20 07:42:13;;;;;;;32.50;21.30;;;;;;;-3.28;97.40;96180.95;105361;1303;22512;-76
2022/11/20 07:44:44;;;;;;;34.50;21.80;;;;;;;-3.22;97.30;96182.35;105248;1303;22578;-76
2022/11/20 07:47:18;;;;;;;32.30;20.60;;;;;;;-3.14;97.57;96186.31;105160;1281;22872;-76
2022/11/20 07:49:49;;;;;;;33.50;21.70;;;;;;;-3.06;97.65;96177.41;105145;1303;22488;-76
2022/11/20 07:52:24;;;;;;;31.20;19.90;;;;;;;-2.97;97.66;96175.63;105182;1292;22479;-77
2022/11/20 07:54:57;;;;;;;34.10;21.40;;;;;;;-2.97;97.35;96173.23;105191;1298;22484;-76
2022/11/20 07:57:28;;;;;;;34.90;22.50;;;;;;;-2.96;97.27;96169.48;105158;1304;25888;-76
2022/11/20 08:00:00;;;;;;;34.70;21.20;;;;;;;-2.91;97.14;96168.80;105154;1306;22584;-76
2022/11/20 08:02:32;;;;;;;35.40;24.30;;;;;;;-2.88;97.12;96171.13;105192;1297;22485;-76
2022/11/20 08:05:03;;;;;;;36.10;23.80;;;;;;;-2.85;96.81;96160.83;105109;1306;22483;-76
2022/11/20 08:07:38;;;;;;;34.30;22.80;;;;;;;-2.79;96.92;96156.75;105134;1306;22459;-76
2022/11/20 08:10:17;;;;;;;31.20;20.50;;;;;;;-2.76;96.75;96160.13;105173;1306;24268;-76
2022/11/20 08:15:41;;;;;;;31.90;21.40;;;;;;;-2.69;96.56;96161.80;105189;1278;22484;-76
2022/11/20 08:18:13;;;;;;;32.40;21.90;;;;;;;-2.68;96.64;96166.88;105096;1306;23351;-76
2022/11/20 08:20:45;;;;;;;44.40;28.50;;;;;;;-2.77;96.16;96170.42;105187;1306;24416;-76
2022/11/20 08:23:20;;;;;;;52.20;32.00;;;;;;;-2.80;96.20;96169.73;105179;1296;22582;-76
2022/11/20 08:25:56;;;;;;;51.30;31.80;;;;;;;-2.74;96.42;96173.05;105218;1293;25468;-76
2022/11/20 08:28:28;;;;;;;58.30;36.30;;;;;;;-2.67;96.66;96169.98;105146;1293;22464;-77
2022/11/20 08:31:03;;;;;;;56.70;36.30;;;;;;;-2.55;96.79;96168.23;105233;1298;22477;-76
2022/11/20 08:33:36;;;;;;;58.00;35.80;;;;;;;-2.35;97.08;96161.23;105240;1287;25222;-76
2022/11/20 08:36:09;;;;;;;55.00;33.60;;;;;;;-2.28;96.91;96163.02;105215;1291;24373;-76
2022/11/20 08:38:41;;;;;;;49.40;32.00;;;;;;;-2.26;96.90;96161.84;105191;1304;32274;-76
2022/11/20 08:41:25;;;;;;;49.30;31.70;;;;;;;-2.24;96.39;96156.02;105211;1304;22455;-76
2022/11/20 08:43:59;;;;;;;44.10;28.80;;;;;;;-2.19;96.76;96154.30;105123;1306;22481;-75
2022/11/20 08:46:37;;;;;;;45.70;30.50;;;;;;;-2.16;96.39;96151.59;105139;1289;22528;-76
2022/11/20 08:49:11;;;;;;;51.60;31.70;;;;;;;-2.11;96.64;96151.45;105204;1280;22532;-76
2022/11/20 08:51:43;;;;;;;51.90;33.70;;;;;;;-2.08;96.39;96145.53;105201;1306;23279;-76
2022/11/20 08:54:17;;;;;;;51.90;36.20;;;;;;;-2.06;96.03;96147.92;105229;1306;24106;-76
2022/11/20 08:56:49;;;;;;;52.20;35.20;;;;;;;-2.00;96.22;96146.15;105223;1282;22461;-76
2022/11/20 08:59:20;;;;;;;48.70;32.80;;;;;;;-1.90;96.27;96140.33;105302;1288;24256;-76
2022/11/20 09:01:52;;;;;;;46.70;31.30;;;;;;;-1.82;96.16;96138.41;105425;1303;24276;-75
2022/11/20 09:04:23;;;;;;;41.10;27.40;;;;;;;-1.71;96.62;96139.98;105224;1285;25330;-75
2022/11/20 09:06:57;;;;;;;38.00;27.10;;;;;;;-1.69;96.07;96138.64;105319;1304;22533;-76
2022/11/20 09:09:29;;;;;;;40.40;26.30;;;;;;;-1.68;95.84;96135.48;105268;1301;22458;-75
2022/11/20 09:12:00;;;;;;;45.00;29.10;;;;;;;-1.64;95.81;96134.77;105351;1304;22550;-76
2022/11/20 09:14:32;;;;;;;41.20;26.90;;;;;;;-1.59;95.70;96135.59;105250;1303;22464;-76
2022/11/20 09:17:07;;;;;;;38.60;25.30;;;;;;;-1.50;96.15;96134.61;105170;1303;24269;-76
2022/11/20 09:19:38;;;;;;;38.00;26.70;;;;;;;-1.38;96.20;96130.94;105193;1306;22491;-76
2022/11/20 09:22:10;;;;;;;41.00;27.00;;;;;;;-1.35;95.98;96134.39;105205;1288;24369;-76
2022/11/20 09:24:42;;;;;;;44.70;28.30;;;;;;;-1.34;95.85;96132.19;105193;1297;24250;-76
2022/11/20 09:27:14;;;;;;;42.50;28.20;;;;;;;-1.27;95.90;96122.15;105140;1295;23985;-76
2022/11/20 09:29:47;;;;;;;41.30;28.10;;;;;;;-1.12;95.85;96116.91;105192;1295;23810;-76
2022/11/20 09:32:19;;;;;;;41.80;28.60;;;;;;;-0.99;95.63;96115.30;105172;1288;27584;-76
2022/11/20 09:34:50;;;;;;;42.60;27.60;;;;;;;-0.98;95.00;96111.81;105148;1288;22473;-76
2022/11/20 09:37:21;;;;;;;38.60;26.10;;;;;;;-0.97;94.96;96114.39;105176;1302;24258;-76
2022/11/20 09:39:53;;;;;;;40.70;26.60;;;;;;;-0.91;95.14;96117.68;105299;1303;23803;-76
2022/11/20 09:42:34;;;;;;;38.60;24.80;;;;;;;-0.85;94.83;96120.86;105228;1293;23135;-76
2022/11/20 09:45:25;;;;;;;38.50;25.10;;;;;;;-0.83;94.63;96120.25;105358;1289;22484;-76
2022/11/20 09:48:12;;;;;;;39.30;25.60;;;;;;;-0.84;94.33;96121.78;105232;1293;23243;-76
2022/11/20 09:50:49;;;;;;;38.50;25.20;;;;;;;-0.80;94.34;96120.17;105227;1303;22555;-76
2022/11/20 09:53:32;;;;;;;37.30;24.00;;;;;;;-0.64;94.66;96118.92;105253;1282;22489;-76
2022/11/20 09:56:04;;;;;;;36.00;24.10;;;;;;;-0.46;94.53;96121.59;105217;1290;22465;-76
2022/11/20 09:58:41;;;;;;;35.20;23.70;;;;;;;-0.32;94.92;96124.11;105181;1305;22830;-76
2022/11/20 10:01:17;;;;;;;46.20;29.40;;;;;;;-0.19;94.96;96124.94;105196;1306;26242;-76
2022/11/20 10:03:55;;;;;;;48.20;31.20;;;;;;;-0.19;94.35;96131.30;105190;1304;22494;-76
2022/11/20 10:06:32;;;;;;;49.30;32.20;;;;;;;-0.20;94.30;96131.29;105184;1309;25313;-76
2022/11/20 10:09:17;;;;;;;43.40;29.00;;;;;;;-0.13;94.51;96131.63;105257;1291;24227;-76
2022/11/20 10:12:00;;;;;;;38.20;26.30;;;;;;;-0.08;94.42;96134.56;105172;1294;22476;-76
2022/11/20 10:14:42;;;;;;;39.20;26.20;;;;;;;-0.07;94.27;96138.60;105180;1309;22494;-76
2022/11/20 10:17:23;;;;;;;40.80;27.40;;;;;;;-0.05;94.27;96138.44;105125;1308;24216;-76
2022/11/20 10:20:06;;;;;;;59.30;41.30;;;;;;;-0.05;93.89;96141.09;105205;1285;22474;-76
2022/11/20 10:22:53;;;;;;;49.90;33.60;;;;;;;-0.02;93.93;96138.52;105217;1285;22528;-76
2022/11/20 10:25:33;;;;;;;42.70;27.90;;;;;;;0.06;94.15;96134.38;105213;1304;22498;-76
2022/11/20 10:28:25;;;;;;;39.50;27.20;;;;;;;0.11;94.51;96129.91;105119;1299;22488;-76
2022/11/20 10:31:02;;;;;;;40.70;27.00;;;;;;;0.14;94.35;96130.16;105212;1304;22469;-76
2022/11/20 10:33:40;;;;;;;39.10;26.80;;;;;;;0.18;94.03;96127.81;105187;1285;22475;-76
2022/11/20 10:36:19;;;;;;;37.80;24.70;;;;;;;0.16;94.00;96130.61;105229;1304;22460;-76
2022/11/20 10:38:55;;;;;;;37.20;24.90;;;;;;;-0.03;93.40;96129.37;105254;1303;22478;-76
2022/11/20 10:41:30;;;;;;;43.70;28.90;;;;;;;-0.23;93.13;96133.30;105196;1285;22469;-76
2022/11/20 10:44:10;;;;;;;50.90;33.30;;;;;;;-0.41;93.09;96129.96;105192;1289;22541;-76
2022/11/20 10:46:45;;;;;;;50.90;33.40;;;;;;;-0.57;92.67;96129.89;105139;1288;22469;-76
2022/11/20 10:49:21;;;;;;;55.40;35.70;;;;;;;-0.64;93.29;96130.23;105320;1303;23834;-76
2022/11/20 10:52:10;;;;;;;53.00;34.90;;;;;;;-0.59;93.95;96126.83;105232;1282;22466;-76
2022/11/20 10:54:51;;;;;;;51.30;34.60;;;;;;;-0.50;94.19;96125.55;105219;1304;22606;-76
2022/11/20 10:57:36;;;;;;;49.40;35.60;;;;;;;-0.46;94.54;96120.30;105195;1285;22458;-76
2022/11/20 11:00:13;;;;;;;50.80;33.80;;;;;;;-0.45;94.53;96113.75;105215;1304;22496;-76
2022/11/20 11:02:49;;;;;;;50.40;33.00;;;;;;;-0.47;94.12;96112.46;105440;1282;23297;-76
2022/11/20 11:05:28;;;;;;;48.00;32.10;;;;;;;-0.59;94.04;96108.81;105232;1307;22770;-77
2022/11/20 11:08:02;;;;;;;52.90;33.30;;;;;;;-0.74;93.99;96104.71;105131;1288;26380;-77
2022/11/20 11:10:45;;;;;;;44.20;30.60;;;;;;;-0.84;93.75;96107.08;105281;1304;22466;-77
2022/11/20 11:13:28;;;;;;;47.50;31.60;;;;;;;-0.91;93.78;96106.31;105182;1285;22467;-77
2022/11/20 11:16:01;;;;;;;45.00;31.80;;;;;;;-0.94;93.85;96107.13;105223;1302;24337;-77
2022/11/20 11:18:35;;;;;;;49.40;31.60;;;;;;;-0.85;94.16;96100.77;105100;1306;23837;-77
2022/11/20 11:21:10;;;;;;;49.30;33.60;;;;;;;-0.73;94.47;96096.89;105194;1297;22525;-77
2022/11/20 11:23:44;;;;;;;49.10;34.00;;;;;;;-0.60;94.62;96093.89;105200;1304;25561;-77
2022/11/20 11:26:25;;;;;;;53.70;37.60;;;;;;;-0.46;94.98;96091.86;105284;1289;22493;-77
2022/11/20 11:29:00;;;;;;;53.00;37.10;;;;;;;-0.33;95.32;96084.34;105221;1290;22933;-77
2022/11/20 11:31:35;;;;;;;62.30;43.20;;;;;;;-0.22;95.17;96080.14;105116;1304;24255;-77
2022/11/20 11:34:13;;;;;;;53.40;36.00;;;;;;;-0.16;95.37;96077.15;105198;1306;22502;-76
2022/11/20 11:36:58;;;;;;;49.10;33.20;;;;;;;-0.14;95.16;96073.81;105237;1302;22468;-76
2022/11/20 11:39:32;;;;;;;58.20;38.50;;;;;;;-0.07;95.00;96068.50;105277;1288;22466;-76
2022/11/20 11:42:06;;;;;;;67.30;44.50;;;;;;;-0.03;95.28;96064.70;105315;1302;23876;-77
2022/11/20 11:47:37;;;;;;;44.20;32.10;;;;;;;-0.08;94.69;96065.78;105160;1289;22467;-76